sensor_id;sensor_type;location;lat;lon;timestamp;P1;durP1;ratioP1;P2;durP2;ratioP2
21780;SDS011;52576;53.614;9.894;2022-08-04T00:00:53;15.95;;;7.07;;
21780;SDS011;52576;53.614;9.894;2022-08-04T00:02:05;14.52;;;7.00;;
21780;SDS011;52576;53.614;9.894;2022-08-04T00:03:15;17.40;;;7.78;;
21780;SDS011;52576;53.614;9.894;2022-08-04T00:04:23;19.30;;;7.28;;
21780;SDS011;52576;53.614;9.894;2022-08-04T00:05:35;16.85;;;7.05;;
21780;SDS011;52576;53.614;9.894;2022-08-04T00:06:51;16.35;;;7.00;;
21780;SDS011;52576;53.614;9.894;2022-08-04T00:08:04;14.73;;;6.72;;
21780;SDS011;52576;53.614;9.894;2022-08-04T00:09:13;13.25;;;7.05;;
21780;SDS011;52576;53.614;9.894;2022-08-04T00:10:23;15.65;;;7.13;;
21780;SDS011;52576;53.614;9.894;2022-08-04T00:11:29;17.98;;;7.78;;
21780;SDS011;52576;53.614;9.894;2022-08-04T00:12:36;21.17;;;7.43;;
21780;SDS011;52576;53.614;9.894;2022-08-04T00:13:46;18.95;;;7.13;;
21780;SDS011;52576;53.614;9.894;2022-08-04T00:15:04;19.45;;;7.55;;
21780;SDS011;52576;53.614;9.894;2022-08-04T00:16:15;15.68;;;7.22;;
21780;SDS011;52576;53.614;9.894;2022-08-04T00:17:20;19.05;;;7.65;;
21780;SDS011;52576;53.614;9.894;2022-08-04T00:18:28;21.05;;;7.63;;
21780;SDS011;52576;53.614;9.894;2022-08-04T00:19:37;21.65;;;7.50;;
21780;SDS011;52576;53.614;9.894;2022-08-04T00:20:42;18.73;;;7.22;;
21780;SDS011;52576;53.614;9.894;2022-08-04T00:21:47;13.77;;;6.93;;
21780;SDS011;52576;53.614;9.894;2022-08-04T00:22:52;15.50;;;6.90;;
21780;SDS011;52576;53.614;9.894;2022-08-04T00:23:56;13.75;;;7.10;;
21780;SDS011;52576;53.614;9.894;2022-08-04T00:25:13;22.90;;;7.30;;
21780;SDS011;52576;53.614;9.894;2022-08-04T00:26:17;13.57;;;7.20;;
21780;SDS011;52576;53.614;9.894;2022-08-04T00:27:22;18.80;;;7.43;;
21780;SDS011;52576;53.614;9.894;2022-08-04T00:28:26;14.18;;;7.07;;
21780;SDS011;52576;53.614;9.894;2022-08-04T00:29:29;16.90;;;7.45;;
21780;SDS011;52576;53.614;9.894;2022-08-04T00:30:34;19.92;;;7.35;;
21780;SDS011;52576;53.614;9.894;2022-08-04T00:31:36;17.75;;;7.00;;
21780;SDS011;52576;53.614;9.894;2022-08-04T00:32:58;15.68;;;7.03;;
21780;SDS011;52576;53.614;9.894;2022-08-04T00:34:03;14.18;;;7.15;;
21780;SDS011;52576;53.614;9.894;2022-08-04T00:35:07;16.90;;;7.15;;
21780;SDS011;52576;53.614;9.894;2022-08-04T00:36:12;20.65;;;7.22;;
21780;SDS011;52576;53.614;9.894;2022-08-04T00:37:15;19.92;;;7.25;;
21780;SDS011;52576;53.614;9.894;2022-08-04T00:38:23;16.23;;;7.15;;
21780;SDS011;52576;53.614;9.894;2022-08-04T00:39:31;17.10;;;6.63;;
21780;SDS011;52576;53.614;9.894;2022-08-04T00:40:35;14.23;;;6.85;;
21780;SDS011;52576;53.614;9.894;2022-08-04T00:41:51;15.98;;;6.95;;
21780;SDS011;52576;53.614;9.894;2022-08-04T00:43:20;22.08;;;7.13;;
21780;SDS011;52576;53.614;9.894;2022-08-04T00:44:34;18.83;;;7.10;;
21780;SDS011;52576;53.614;9.894;2022-08-04T00:45:59;16.88;;;6.90;;
21780;SDS011;52576;53.614;9.894;2022-08-04T00:47:28;14.23;;;6.75;;
21780;SDS011;52576;53.614;9.894;2022-08-04T00:48:51;18.15;;;6.90;;
21780;SDS011;52576;53.614;9.894;2022-08-04T00:50:09;14.77;;;6.53;;
21780;SDS011;52576;53.614;9.894;2022-08-04T00:51:14;20.45;;;7.10;;
21780;SDS011;52576;53.614;9.894;2022-08-04T00:52:40;17.83;;;7.15;;
21780;SDS011;52576;53.614;9.894;2022-08-04T00:53:59;15.30;;;6.95;;
21780;SDS011;52576;53.614;9.894;2022-08-04T00:55:29;15.77;;;7.03;;
21780;SDS011;52576;53.614;9.894;2022-08-04T00:56:55;16.73;;;6.30;;
21780;SDS011;52576;53.614;9.894;2022-08-04T00:58:10;17.60;;;6.70;;
21780;SDS011;52576;53.614;9.894;2022-08-04T00:59:45;24.55;;;7.63;;
21780;SDS011;52576;53.614;9.894;2022-08-04T01:01:06;12.38;;;6.15;;
21780;SDS011;52576;53.614;9.894;2022-08-04T01:02:16;18.08;;;6.70;;
21780;SDS011;52576;53.614;9.894;2022-08-04T01:03:32;14.15;;;5.95;;
21780;SDS011;52576;53.614;9.894;2022-08-04T01:04:46;15.63;;;5.95;;
21780;SDS011;52576;53.614;9.894;2022-08-04T01:06:00;20.67;;;5.90;;
21780;SDS011;52576;53.614;9.894;2022-08-04T01:07:13;13.43;;;5.70;;
21780;SDS011;52576;53.614;9.894;2022-08-04T01:09:58;13.93;;;6.25;;
21780;SDS011;52576;53.614;9.894;2022-08-04T01:11:12;10.23;;;5.75;;
21780;SDS011;52576;53.614;9.894;2022-08-04T01:12:39;17.02;;;6.55;;
21780;SDS011;52576;53.614;9.894;2022-08-04T01:13:55;14.05;;;5.82;;
21780;SDS011;52576;53.614;9.894;2022-08-04T01:15:14;17.02;;;5.57;;
21780;SDS011;52576;53.614;9.894;2022-08-04T01:16:24;15.95;;;5.72;;
21780;SDS011;52576;53.614;9.894;2022-08-04T01:17:32;14.45;;;6.13;;
21780;SDS011;52576;53.614;9.894;2022-08-04T01:18:45;10.82;;;5.50;;
21780;SDS011;52576;53.614;9.894;2022-08-04T01:19:59;15.75;;;5.38;;
21780;SDS011;52576;53.614;9.894;2022-08-04T01:21:15;15.63;;;5.45;;
21780;SDS011;52576;53.614;9.894;2022-08-04T01:24:18;12.70;;;5.38;;
21780;SDS011;52576;53.614;9.894;2022-08-04T01:27:45;10.60;;;5.35;;
21780;SDS011;52576;53.614;9.894;2022-08-04T01:29:08;13.38;;;6.15;;
21780;SDS011;52576;53.614;9.894;2022-08-04T01:30:15;15.10;;;5.95;;
21780;SDS011;52576;53.614;9.894;2022-08-04T01:31:20;10.50;;;4.65;;
21780;SDS011;52576;53.614;9.894;2022-08-04T01:32:31;15.55;;;5.15;;
21780;SDS011;52576;53.614;9.894;2022-08-04T01:33:38;13.07;;;5.40;;
21780;SDS011;52576;53.614;9.894;2022-08-04T01:36:49;16.13;;;5.43;;
21780;SDS011;52576;53.614;9.894;2022-08-04T01:38:00;11.30;;;5.15;;
21780;SDS011;52576;53.614;9.894;2022-08-04T01:39:22;17.45;;;5.30;;
21780;SDS011;52576;53.614;9.894;2022-08-04T01:40:41;14.15;;;4.93;;
21780;SDS011;52576;53.614;9.894;2022-08-04T01:41:46;16.67;;;5.40;;
21780;SDS011;52576;53.614;9.894;2022-08-04T01:42:59;15.38;;;4.90;;
21780;SDS011;52576;53.614;9.894;2022-08-04T01:44:03;18.23;;;5.30;;
21780;SDS011;52576;53.614;9.894;2022-08-04T01:45:10;14.30;;;4.88;;
21780;SDS011;52576;53.614;9.894;2022-08-04T01:46:15;16.10;;;5.38;;
21780;SDS011;52576;53.614;9.894;2022-08-04T01:47:19;16.15;;;5.28;;
21780;SDS011;52576;53.614;9.894;2022-08-04T01:48:24;18.60;;;5.88;;
21780;SDS011;52576;53.614;9.894;2022-08-04T01:49:28;10.70;;;5.28;;
21780;SDS011;52576;53.614;9.894;2022-08-04T01:50:41;14.18;;;5.40;;
21780;SDS011;52576;53.614;9.894;2022-08-04T01:51:53;11.00;;;4.72;;
21780;SDS011;52576;53.614;9.894;2022-08-04T01:52:56;12.38;;;5.28;;
21780;SDS011;52576;53.614;9.894;2022-08-04T01:54:00;9.30;;;5.10;;
21780;SDS011;52576;53.614;9.894;2022-08-04T01:55:04;10.65;;;5.38;;
21780;SDS011;52576;53.614;9.894;2022-08-04T01:56:11;12.07;;;5.32;;
21780;SDS011;52576;53.614;9.894;2022-08-04T01:57:14;14.85;;;5.22;;
21780;SDS011;52576;53.614;9.894;2022-08-04T01:58:40;13.35;;;4.63;;
21780;SDS011;52576;53.614;9.894;2022-08-04T01:59:44;11.93;;;4.97;;
21780;SDS011;52576;53.614;9.894;2022-08-04T02:00:55;10.65;;;4.40;;
21780;SDS011;52576;53.614;9.894;2022-08-04T02:02:00;10.07;;;4.22;;
21780;SDS011;52576;53.614;9.894;2022-08-04T02:03:03;12.25;;;4.88;;
21780;SDS011;52576;53.614;9.894;2022-08-04T02:04:06;16.75;;;5.40;;
21780;SDS011;52576;53.614;9.894;2022-08-04T02:05:25;15.52;;;5.22;;
21780;SDS011;52576;53.614;9.894;2022-08-04T02:06:56;10.05;;;4.55;;
21780;SDS011;52576;53.614;9.894;2022-08-04T02:08:19;10.82;;;4.22;;
21780;SDS011;52576;53.614;9.894;2022-08-04T02:09:42;15.43;;;5.47;;
21780;SDS011;52576;53.614;9.894;2022-08-04T02:10:58;14.90;;;4.97;;
21780;SDS011;52576;53.614;9.894;2022-08-04T02:12:17;8.18;;;4.38;;
21780;SDS011;52576;53.614;9.894;2022-08-04T02:13:37;13.75;;;4.80;;
21780;SDS011;52576;53.614;9.894;2022-08-04T02:14:55;11.23;;;4.82;;
21780;SDS011;52576;53.614;9.894;2022-08-04T02:16:03;16.73;;;4.63;;
21780;SDS011;52576;53.614;9.894;2022-08-04T02:17:23;16.67;;;5.22;;
21780;SDS011;52576;53.614;9.894;2022-08-04T02:18:31;11.38;;;5.00;;
21780;SDS011;52576;53.614;9.894;2022-08-04T02:19:51;17.70;;;5.53;;
21780;SDS011;52576;53.614;9.894;2022-08-04T02:21:02;11.50;;;4.93;;
21780;SDS011;52576;53.614;9.894;2022-08-04T02:22:07;13.30;;;5.07;;
21780;SDS011;52576;53.614;9.894;2022-08-04T02:23:13;14.30;;;5.00;;
21780;SDS011;52576;53.614;9.894;2022-08-04T02:24:17;8.90;;;5.15;;
21780;SDS011;52576;53.614;9.894;2022-08-04T02:25:26;10.95;;;4.93;;
21780;SDS011;52576;53.614;9.894;2022-08-04T02:26:31;13.95;;;4.90;;
21780;SDS011;52576;53.614;9.894;2022-08-04T02:27:43;14.35;;;5.40;;
21780;SDS011;52576;53.614;9.894;2022-08-04T02:29:03;14.55;;;5.35;;
21780;SDS011;52576;53.614;9.894;2022-08-04T02:30:13;14.70;;;5.57;;
21780;SDS011;52576;53.614;9.894;2022-08-04T02:31:23;12.05;;;5.30;;
21780;SDS011;52576;53.614;9.894;2022-08-04T02:32:32;15.65;;;5.70;;
21780;SDS011;52576;53.614;9.894;2022-08-04T02:33:41;15.95;;;5.35;;
21780;SDS011;52576;53.614;9.894;2022-08-04T02:34:47;15.50;;;5.40;;
21780;SDS011;52576;53.614;9.894;2022-08-04T02:35:56;11.68;;;5.05;;
21780;SDS011;52576;53.614;9.894;2022-08-04T02:37:03;17.38;;;4.97;;
21780;SDS011;52576;53.614;9.894;2022-08-04T02:38:11;12.13;;;5.28;;
21780;SDS011;52576;53.614;9.894;2022-08-04T02:39:33;9.93;;;4.45;;
21780;SDS011;52576;53.614;9.894;2022-08-04T02:40:50;14.27;;;4.60;;
21780;SDS011;52576;53.614;9.894;2022-08-04T02:41:56;12.57;;;4.57;;
21780;SDS011;52576;53.614;9.894;2022-08-04T02:43:01;9.93;;;4.65;;
21780;SDS011;52576;53.614;9.894;2022-08-04T02:44:05;12.98;;;4.80;;
21780;SDS011;52576;53.614;9.894;2022-08-04T02:45:10;13.82;;;4.63;;
21780;SDS011;52576;53.614;9.894;2022-08-04T02:46:13;11.85;;;4.50;;
21780;SDS011;52576;53.614;9.894;2022-08-04T02:47:20;17.60;;;4.97;;
21780;SDS011;52576;53.614;9.894;2022-08-04T02:48:23;11.25;;;4.97;;
21780;SDS011;52576;53.614;9.894;2022-08-04T02:49:34;8.85;;;4.60;;
21780;SDS011;52576;53.614;9.894;2022-08-04T02:50:41;13.48;;;4.90;;
21780;SDS011;52576;53.614;9.894;2022-08-04T02:51:50;12.55;;;4.72;;
21780;SDS011;52576;53.614;9.894;2022-08-04T02:52:53;12.65;;;4.88;;
21780;SDS011;52576;53.614;9.894;2022-08-04T02:53:58;12.40;;;4.65;;
21780;SDS011;52576;53.614;9.894;2022-08-04T02:55:05;10.48;;;4.72;;
21780;SDS011;52576;53.614;9.894;2022-08-04T02:56:11;16.08;;;4.50;;
21780;SDS011;52576;53.614;9.894;2022-08-04T02:57:20;11.85;;;4.95;;
21780;SDS011;52576;53.614;9.894;2022-08-04T02:58:25;12.18;;;4.63;;
21780;SDS011;52576;53.614;9.894;2022-08-04T02:59:37;10.73;;;4.55;;
21780;SDS011;52576;53.614;9.894;2022-08-04T03:00:54;11.15;;;4.50;;
21780;SDS011;52576;53.614;9.894;2022-08-04T03:01:56;13.68;;;5.07;;
21780;SDS011;52576;53.614;9.894;2022-08-04T03:03:12;16.80;;;4.70;;
21780;SDS011;52576;53.614;9.894;2022-08-04T03:04:25;13.90;;;4.57;;
21780;SDS011;52576;53.614;9.894;2022-08-04T03:05:39;15.38;;;4.80;;
21780;SDS011;52576;53.614;9.894;2022-08-04T03:07:11;9.65;;;5.03;;
21780;SDS011;52576;53.614;9.894;2022-08-04T03:10:36;9.48;;;4.05;;
21780;SDS011;52576;53.614;9.894;2022-08-04T03:12:05;13.93;;;4.32;;
21780;SDS011;52576;53.614;9.894;2022-08-04T03:13:34;9.70;;;4.38;;
21780;SDS011;52576;53.614;9.894;2022-08-04T03:20:01;11.27;;;4.05;;
21780;SDS011;52576;53.614;9.894;2022-08-04T03:21:30;5.15;;;3.92;;
21780;SDS011;52576;53.614;9.894;2022-08-04T03:22:58;9.27;;;4.38;;
21780;SDS011;52576;53.614;9.894;2022-08-04T03:24:29;12.25;;;4.32;;
21780;SDS011;52576;53.614;9.894;2022-08-04T03:29:09;8.52;;;4.18;;
21780;SDS011;52576;53.614;9.894;2022-08-04T03:30:40;15.20;;;3.88;;
21780;SDS011;52576;53.614;9.894;2022-08-04T03:32:11;11.90;;;4.00;;
21780;SDS011;52576;53.614;9.894;2022-08-04T03:33:44;10.30;;;4.05;;
21780;SDS011;52576;53.614;9.894;2022-08-04T03:38:27;11.55;;;4.03;;
21780;SDS011;52576;53.614;9.894;2022-08-04T03:43:13;8.00;;;3.72;;
21780;SDS011;52576;53.614;9.894;2022-08-04T03:45:04;12.07;;;4.55;;
21780;SDS011;52576;53.614;9.894;2022-08-04T03:46:57;10.75;;;4.75;;
21780;SDS011;52576;53.614;9.894;2022-08-04T03:48:32;13.50;;;4.60;;
21780;SDS011;52576;53.614;9.894;2022-08-04T03:51:33;15.48;;;4.40;;
21780;SDS011;52576;53.614;9.894;2022-08-04T03:53:20;11.40;;;4.03;;
21780;SDS011;52576;53.614;9.894;2022-08-04T03:54:41;14.25;;;4.32;;
21780;SDS011;52576;53.614;9.894;2022-08-04T03:56:13;11.27;;;4.43;;
21780;SDS011;52576;53.614;9.894;2022-08-04T03:57:44;12.77;;;4.65;;
21780;SDS011;52576;53.614;9.894;2022-08-04T03:59:15;13.55;;;4.72;;
21780;SDS011;52576;53.614;9.894;2022-08-04T04:00:38;9.88;;;4.35;;
21780;SDS011;52576;53.614;9.894;2022-08-04T04:03:49;11.32;;;4.30;;
21780;SDS011;52576;53.614;9.894;2022-08-04T04:05:25;9.70;;;4.32;;
21780;SDS011;52576;53.614;9.894;2022-08-04T04:07:07;12.73;;;5.28;;
21780;SDS011;52576;53.614;9.894;2022-08-04T04:10:29;11.68;;;4.57;;
21780;SDS011;52576;53.614;9.894;2022-08-04T04:11:58;12.88;;;4.53;;
21780;SDS011;52576;53.614;9.894;2022-08-04T04:13:25;13.90;;;4.50;;
21780;SDS011;52576;53.614;9.894;2022-08-04T04:14:40;12.55;;;5.05;;
21780;SDS011;52576;53.614;9.894;2022-08-04T04:16:06;11.43;;;4.93;;
21780;SDS011;52576;53.614;9.894;2022-08-04T04:17:44;11.25;;;4.47;;
21780;SDS011;52576;53.614;9.894;2022-08-04T04:19:12;12.07;;;4.70;;
21780;SDS011;52576;53.614;9.894;2022-08-04T04:20:24;7.47;;;4.00;;
21780;SDS011;52576;53.614;9.894;2022-08-04T04:23:40;10.13;;;4.25;;
21780;SDS011;52576;53.614;9.894;2022-08-04T04:25:09;14.48;;;4.80;;
21780;SDS011;52576;53.614;9.894;2022-08-04T04:26:34;8.93;;;3.75;;
21780;SDS011;52576;53.614;9.894;2022-08-04T04:27:42;12.18;;;3.92;;
21780;SDS011;52576;53.614;9.894;2022-08-04T04:29:35;17.63;;;4.90;;
21780;SDS011;52576;53.614;9.894;2022-08-04T04:31:01;14.75;;;4.53;;
21780;SDS011;52576;53.614;9.894;2022-08-04T04:32:14;13.75;;;4.30;;
21780;SDS011;52576;53.614;9.894;2022-08-04T04:33:27;8.20;;;4.30;;
21780;SDS011;52576;53.614;9.894;2022-08-04T04:34:45;8.93;;;4.75;;
21780;SDS011;52576;53.614;9.894;2022-08-04T04:35:58;13.20;;;4.45;;
21780;SDS011;52576;53.614;9.894;2022-08-04T04:40:14;10.05;;;4.40;;
21780;SDS011;52576;53.614;9.894;2022-08-04T04:43:09;14.85;;;4.53;;
21780;SDS011;52576;53.614;9.894;2022-08-04T04:45:48;10.77;;;4.78;;
21780;SDS011;52576;53.614;9.894;2022-08-04T04:46:58;13.93;;;5.88;;
21780;SDS011;52576;53.614;9.894;2022-08-04T04:48:11;14.20;;;5.35;;
21780;SDS011;52576;53.614;9.894;2022-08-04T04:49:21;11.07;;;5.13;;
21780;SDS011;52576;53.614;9.894;2022-08-04T04:50:31;7.45;;;4.50;;
21780;SDS011;52576;53.614;9.894;2022-08-04T04:51:47;9.27;;;4.78;;
21780;SDS011;52576;53.614;9.894;2022-08-04T04:52:52;13.88;;;4.47;;
21780;SDS011;52576;53.614;9.894;2022-08-04T04:54:05;11.77;;;4.70;;
21780;SDS011;52576;53.614;9.894;2022-08-04T04:55:16;10.63;;;4.00;;
21780;SDS011;52576;53.614;9.894;2022-08-04T04:56:24;12.13;;;4.57;;
21780;SDS011;52576;53.614;9.894;2022-08-04T04:57:35;8.05;;;4.55;;
21780;SDS011;52576;53.614;9.894;2022-08-04T04:58:55;13.52;;;4.20;;
21780;SDS011;52576;53.614;9.894;2022-08-04T05:00:03;9.82;;;3.85;;
21780;SDS011;52576;53.614;9.894;2022-08-04T05:01:11;11.90;;;4.25;;
21780;SDS011;52576;53.614;9.894;2022-08-04T05:02:35;10.05;;;3.70;;
21780;SDS011;52576;53.614;9.894;2022-08-04T05:04:06;11.68;;;4.15;;
21780;SDS011;52576;53.614;9.894;2022-08-04T05:07:05;7.70;;;3.88;;
21780;SDS011;52576;53.614;9.894;2022-08-04T05:08:25;12.80;;;4.40;;
21780;SDS011;52576;53.614;9.894;2022-08-04T05:10:02;10.55;;;3.97;;
21780;SDS011;52576;53.614;9.894;2022-08-04T05:11:24;12.95;;;3.78;;
21780;SDS011;52576;53.614;9.894;2022-08-04T05:14:32;11.82;;;3.90;;
21780;SDS011;52576;53.614;9.894;2022-08-04T05:15:43;9.25;;;4.00;;
21780;SDS011;52576;53.614;9.894;2022-08-04T05:16:50;11.52;;;4.55;;
21780;SDS011;52576;53.614;9.894;2022-08-04T05:18:00;11.00;;;4.10;;
21780;SDS011;52576;53.614;9.894;2022-08-04T05:19:07;12.15;;;3.95;;
21780;SDS011;52576;53.614;9.894;2022-08-04T05:20:19;7.63;;;3.33;;
21780;SDS011;52576;53.614;9.894;2022-08-04T05:21:31;12.32;;;3.25;;
21780;SDS011;52576;53.614;9.894;2022-08-04T05:22:40;12.07;;;3.90;;
21780;SDS011;52576;53.614;9.894;2022-08-04T05:23:50;7.95;;;4.22;;
21780;SDS011;52576;53.614;9.894;2022-08-04T05:25:01;13.00;;;4.38;;
21780;SDS011;52576;53.614;9.894;2022-08-04T05:26:10;12.93;;;3.58;;
21780;SDS011;52576;53.614;9.894;2022-08-04T05:27:16;12.18;;;3.80;;
21780;SDS011;52576;53.614;9.894;2022-08-04T05:28:24;12.75;;;3.95;;
21780;SDS011;52576;53.614;9.894;2022-08-04T05:29:30;15.05;;;3.60;;
21780;SDS011;52576;53.614;9.894;2022-08-04T05:30:37;9.40;;;3.55;;
21780;SDS011;52576;53.614;9.894;2022-08-04T05:31:50;9.35;;;3.90;;
21780;SDS011;52576;53.614;9.894;2022-08-04T05:32:57;11.00;;;3.40;;
21780;SDS011;52576;53.614;9.894;2022-08-04T05:34:04;8.90;;;3.40;;
21780;SDS011;52576;53.614;9.894;2022-08-04T05:35:10;11.70;;;3.67;;
21780;SDS011;52576;53.614;9.894;2022-08-04T05:36:37;11.02;;;4.05;;
21780;SDS011;52576;53.614;9.894;2022-08-04T05:37:42;8.48;;;3.70;;
21780;SDS011;52576;53.614;9.894;2022-08-04T05:39:02;11.82;;;4.18;;
21780;SDS011;52576;53.614;9.894;2022-08-04T05:40:08;9.60;;;3.90;;
21780;SDS011;52576;53.614;9.894;2022-08-04T05:41:13;10.05;;;3.28;;
21780;SDS011;52576;53.614;9.894;2022-08-04T05:42:17;10.40;;;3.83;;
21780;SDS011;52576;53.614;9.894;2022-08-04T05:43:25;13.25;;;3.80;;
21780;SDS011;52576;53.614;9.894;2022-08-04T05:44:28;15.52;;;3.67;;
21780;SDS011;52576;53.614;9.894;2022-08-04T05:45:33;15.55;;;3.58;;
21780;SDS011;52576;53.614;9.894;2022-08-04T05:46:39;11.55;;;3.40;;
21780;SDS011;52576;53.614;9.894;2022-08-04T05:47:43;10.32;;;3.70;;
21780;SDS011;52576;53.614;9.894;2022-08-04T05:48:47;13.23;;;3.55;;
21780;SDS011;52576;53.614;9.894;2022-08-04T05:49:50;18.13;;;4.00;;
21780;SDS011;52576;53.614;9.894;2022-08-04T05:51:02;12.55;;;3.33;;
21780;SDS011;52576;53.614;9.894;2022-08-04T05:52:06;8.93;;;3.95;;
21780;SDS011;52576;53.614;9.894;2022-08-04T05:53:12;13.77;;;4.30;;
21780;SDS011;52576;53.614;9.894;2022-08-04T05:54:15;14.00;;;4.30;;
21780;SDS011;52576;53.614;9.894;2022-08-04T05:55:22;19.88;;;4.72;;
21780;SDS011;52576;53.614;9.894;2022-08-04T05:56:47;10.57;;;3.97;;
21780;SDS011;52576;53.614;9.894;2022-08-04T05:57:51;12.38;;;3.50;;
21780;SDS011;52576;53.614;9.894;2022-08-04T05:58:57;11.35;;;3.25;;
21780;SDS011;52576;53.614;9.894;2022-08-04T06:00:03;10.23;;;3.30;;
21780;SDS011;52576;53.614;9.894;2022-08-04T06:01:28;13.77;;;3.28;;
21780;SDS011;52576;53.614;9.894;2022-08-04T06:02:53;8.73;;;3.60;;
21780;SDS011;52576;53.614;9.894;2022-08-04T06:03:59;15.38;;;3.53;;
21780;SDS011;52576;53.614;9.894;2022-08-04T06:05:11;11.98;;;3.22;;
21780;SDS011;52576;53.614;9.894;2022-08-04T06:06:16;14.25;;;3.72;;
21780;SDS011;52576;53.614;9.894;2022-08-04T06:07:20;13.23;;;3.65;;
21780;SDS011;52576;53.614;9.894;2022-08-04T06:08:23;15.27;;;3.42;;
21780;SDS011;52576;53.614;9.894;2022-08-04T06:09:26;13.65;;;3.65;;
21780;SDS011;52576;53.614;9.894;2022-08-04T06:10:30;14.82;;;4.45;;
21780;SDS011;52576;53.614;9.894;2022-08-04T06:11:35;15.65;;;3.78;;
21780;SDS011;52576;53.614;9.894;2022-08-04T06:13:00;16.10;;;3.60;;
21780;SDS011;52576;53.614;9.894;2022-08-04T06:14:08;13.98;;;3.60;;
21780;SDS011;52576;53.614;9.894;2022-08-04T06:15:17;12.15;;;4.10;;
21780;SDS011;52576;53.614;9.894;2022-08-04T06:16:28;15.88;;;3.47;;
21780;SDS011;52576;53.614;9.894;2022-08-04T06:17:39;15.15;;;4.03;;
21780;SDS011;52576;53.614;9.894;2022-08-04T06:19:08;13.48;;;3.67;;
21780;SDS011;52576;53.614;9.894;2022-08-04T06:20:34;12.18;;;3.80;;
21780;SDS011;52576;53.614;9.894;2022-08-04T06:21:51;10.77;;;3.60;;
21780;SDS011;52576;53.614;9.894;2022-08-04T06:22:58;13.57;;;3.95;;
21780;SDS011;52576;53.614;9.894;2022-08-04T06:24:03;10.15;;;3.85;;
21780;SDS011;52576;53.614;9.894;2022-08-04T06:25:13;13.95;;;3.47;;
21780;SDS011;52576;53.614;9.894;2022-08-04T06:26:19;14.32;;;3.95;;
21780;SDS011;52576;53.614;9.894;2022-08-04T06:27:23;9.18;;;3.58;;
21780;SDS011;52576;53.614;9.894;2022-08-04T06:28:27;11.30;;;3.42;;
21780;SDS011;52576;53.614;9.894;2022-08-04T06:29:37;14.13;;;4.28;;
21780;SDS011;52576;53.614;9.894;2022-08-04T06:30:52;13.38;;;3.80;;
21780;SDS011;52576;53.614;9.894;2022-08-04T06:32:22;9.60;;;3.78;;
21780;SDS011;52576;53.614;9.894;2022-08-04T06:33:38;9.32;;;3.25;;
21780;SDS011;52576;53.614;9.894;2022-08-04T06:34:56;12.07;;;3.05;;
21780;SDS011;52576;53.614;9.894;2022-08-04T06:36:03;13.18;;;4.13;;
21780;SDS011;52576;53.614;9.894;2022-08-04T06:37:08;12.00;;;3.92;;
21780;SDS011;52576;53.614;9.894;2022-08-04T06:38:11;13.35;;;3.80;;
21780;SDS011;52576;53.614;9.894;2022-08-04T06:39:15;11.40;;;3.35;;
21780;SDS011;52576;53.614;9.894;2022-08-04T06:40:19;8.20;;;3.45;;
21780;SDS011;52576;53.614;9.894;2022-08-04T06:41:33;10.63;;;3.20;;
21780;SDS011;52576;53.614;9.894;2022-08-04T06:42:56;11.52;;;3.40;;
21780;SDS011;52576;53.614;9.894;2022-08-04T06:44:01;17.80;;;3.35;;
21780;SDS011;52576;53.614;9.894;2022-08-04T06:45:07;11.07;;;2.97;;
21780;SDS011;52576;53.614;9.894;2022-08-04T06:46:12;14.13;;;3.35;;
21780;SDS011;52576;53.614;9.894;2022-08-04T06:47:16;14.98;;;4.07;;
21780;SDS011;52576;53.614;9.894;2022-08-04T06:48:22;13.27;;;3.65;;
21780;SDS011;52576;53.614;9.894;2022-08-04T06:49:34;12.10;;;3.45;;
21780;SDS011;52576;53.614;9.894;2022-08-04T06:50:58;15.05;;;3.60;;
21780;SDS011;52576;53.614;9.894;2022-08-04T06:52:23;14.32;;;3.28;;
21780;SDS011;52576;53.614;9.894;2022-08-04T06:53:25;10.65;;;3.50;;
21780;SDS011;52576;53.614;9.894;2022-08-04T06:54:29;13.68;;;3.22;;
21780;SDS011;52576;53.614;9.894;2022-08-04T06:55:31;10.13;;;3.35;;
21780;SDS011;52576;53.614;9.894;2022-08-04T06:56:36;15.77;;;4.10;;
21780;SDS011;52576;53.614;9.894;2022-08-04T06:57:42;13.73;;;3.90;;
21780;SDS011;52576;53.614;9.894;2022-08-04T06:58:46;14.27;;;3.67;;
21780;SDS011;52576;53.614;9.894;2022-08-04T06:59:52;10.27;;;3.60;;
21780;SDS011;52576;53.614;9.894;2022-08-04T07:01:00;19.52;;;4.13;;
21780;SDS011;52576;53.614;9.894;2022-08-04T07:02:04;12.65;;;3.65;;
21780;SDS011;52576;53.614;9.894;2022-08-04T07:03:08;18.60;;;3.72;;
21780;SDS011;52576;53.614;9.894;2022-08-04T07:04:12;10.55;;;3.42;;
21780;SDS011;52576;53.614;9.894;2022-08-04T07:05:15;10.73;;;3.83;;
21780;SDS011;52576;53.614;9.894;2022-08-04T07:06:20;18.58;;;3.50;;
21780;SDS011;52576;53.614;9.894;2022-08-04T07:07:23;11.35;;;3.80;;
21780;SDS011;52576;53.614;9.894;2022-08-04T07:08:47;11.73;;;3.70;;
21780;SDS011;52576;53.614;9.894;2022-08-04T07:09:51;8.98;;;3.20;;
21780;SDS011;52576;53.614;9.894;2022-08-04T07:10:54;12.20;;;3.25;;
21780;SDS011;52576;53.614;9.894;2022-08-04T07:11:59;10.70;;;3.38;;
21780;SDS011;52576;53.614;9.894;2022-08-04T07:13:03;15.70;;;3.97;;
21780;SDS011;52576;53.614;9.894;2022-08-04T07:14:07;8.00;;;3.22;;
21780;SDS011;52576;53.614;9.894;2022-08-04T07:15:11;15.20;;;3.53;;
21780;SDS011;52576;53.614;9.894;2022-08-04T07:16:16;13.15;;;3.30;;
21780;SDS011;52576;53.614;9.894;2022-08-04T07:17:21;13.00;;;3.53;;
21780;SDS011;52576;53.614;9.894;2022-08-04T07:18:29;13.90;;;3.33;;
21780;SDS011;52576;53.614;9.894;2022-08-04T07:19:33;10.73;;;3.05;;
21780;SDS011;52576;53.614;9.894;2022-08-04T07:20:38;12.35;;;3.35;;
21780;SDS011;52576;53.614;9.894;2022-08-04T07:21:43;11.68;;;3.17;;
21780;SDS011;52576;53.614;9.894;2022-08-04T07:23:06;10.40;;;3.08;;
21780;SDS011;52576;53.614;9.894;2022-08-04T07:24:13;12.43;;;3.75;;
21780;SDS011;52576;53.614;9.894;2022-08-04T07:25:17;11.73;;;3.28;;
21780;SDS011;52576;53.614;9.894;2022-08-04T07:26:41;10.95;;;3.55;;
21780;SDS011;52576;53.614;9.894;2022-08-04T07:27:45;18.63;;;3.72;;
21780;SDS011;52576;53.614;9.894;2022-08-04T07:28:49;11.75;;;3.70;;
21780;SDS011;52576;53.614;9.894;2022-08-04T07:29:53;8.88;;;3.10;;
21780;SDS011;52576;53.614;9.894;2022-08-04T07:30:56;15.27;;;3.60;;
21780;SDS011;52576;53.614;9.894;2022-08-04T07:32:02;9.73;;;3.17;;
21780;SDS011;52576;53.614;9.894;2022-08-04T07:33:05;15.85;;;3.53;;
21780;SDS011;52576;53.614;9.894;2022-08-04T07:34:09;14.35;;;3.28;;
21780;SDS011;52576;53.614;9.894;2022-08-04T07:35:23;14.70;;;3.40;;
21780;SDS011;52576;53.614;9.894;2022-08-04T07:36:49;12.63;;;3.00;;
21780;SDS011;52576;53.614;9.894;2022-08-04T07:37:56;13.85;;;3.10;;
21780;SDS011;52576;53.614;9.894;2022-08-04T07:38:59;12.30;;;2.90;;
21780;SDS011;52576;53.614;9.894;2022-08-04T07:40:03;11.00;;;2.65;;
21780;SDS011;52576;53.614;9.894;2022-08-04T07:41:07;14.82;;;3.50;;
21780;SDS011;52576;53.614;9.894;2022-08-04T07:42:30;10.48;;;2.95;;
21780;SDS011;52576;53.614;9.894;2022-08-04T07:43:34;16.10;;;3.70;;
21780;SDS011;52576;53.614;9.894;2022-08-04T07:44:37;15.45;;;3.67;;
21780;SDS011;52576;53.614;9.894;2022-08-04T07:45:41;14.65;;;3.30;;
21780;SDS011;52576;53.614;9.894;2022-08-04T07:46:44;11.40;;;2.90;;
21780;SDS011;52576;53.614;9.894;2022-08-04T07:47:49;11.32;;;2.75;;
21780;SDS011;52576;53.614;9.894;2022-08-04T07:49:06;13.02;;;3.20;;
21780;SDS011;52576;53.614;9.894;2022-08-04T07:50:09;16.95;;;3.35;;
21780;SDS011;52576;53.614;9.894;2022-08-04T07:51:13;11.05;;;3.30;;
21780;SDS011;52576;53.614;9.894;2022-08-04T07:52:18;12.65;;;3.40;;
21780;SDS011;52576;53.614;9.894;2022-08-04T07:53:21;20.70;;;3.50;;